Tur — UGLB — position and weather

sailwx.info

Track history (hours):
 
Tides and Currents Weather Stations Pressure Air Temp Water Temp Dewpoint Dewpoint Depression Visibility Wind Speed Wind Dir Waves Ship Positions

Tur

Last reported at 2017-Aug-17 05:24 UTC. Time now 2017-Aug-17 05:58 UTC.
Position N 60°00' E 029°43'.

Length 36 m; draft 3.9 m.

Type: Tug. MMSI: 273444990.

Date/timePositionNaut miles runAvg speedWind from/ knotsBaromVisibWave heightAir tempDewpointWater temp
2017-Aug-17 05:24N 60°00' E 029°43'0 0.0
2017-Aug-17 04:57N 60°00' E 029°43'0 0.0
2017-Aug-17 02:30N 60°00' E 029°43'0 0.0
2017-Aug-17 02:00N 60°00' E 029°43'0 0.0
2017-Aug-16 20:38N 60°00' E 029°43'0 0.0
2017-Aug-16 18:44N 60°00' E 029°43'0 0.0
2017-Aug-16 18:27N 60°00' E 029°43'0 0.0
2017-Aug-16 17:54N 60°00' E 029°43'0 0.0
2017-Aug-16 13:32N 60°00' E 029°43'0 0.0
2017-Aug-16 10:35N 60°00' E 029°43'0 0.0
2017-Aug-16 10:22N 60°00' E 029°43'0 0.0
2017-Aug-16 09:59N 60°00' E 029°43'0 0.0
2017-Aug-16 09:07N 60°00' E 029°43'0 0.0
2017-Aug-16 06:59N 60°00' E 029°43'0 0.0
2017-Aug-16 06:30N 60°00' E 029°43'0 0.0
2017-Aug-16 06:00N 60°00' E 029°43'0 0.0
2017-Aug-16 05:30N 60°00' E 029°43'0 0.0
2017-Aug-16 05:00N 60°00' E 029°43'0 0.0
2017-Aug-16 04:31N 60°00' E 029°43'0 0.0
2017-Aug-16 04:00N 60°00' E 029°43'0 0.0
2017-Aug-16 03:30N 60°00' E 029°43'0 0.0
2017-Aug-16 03:00N 60°00' E 029°43'0 0.0
2017-Aug-16 02:30N 60°00' E 029°43'0 0.0
2017-Aug-16 02:00N 60°00' E 029°43'0 0.0
2017-Aug-16 01:30N 60°00' E 029°43'0 0.0
2017-Aug-16 01:01N 60°00' E 029°43'0 0.0
2017-Aug-16 00:30N 60°00' E 029°43'0 0.0
2017-Aug-16 00:00N 60°00' E 029°43'0 0.0
2017-Aug-15 23:29N 60°00' E 029°43'0 0.0
2017-Aug-15 23:00N 60°00' E 029°43'0 0.0
2017-Aug-15 22:30N 60°00' E 029°43'0 0.0
2017-Aug-15 22:00N 60°00' E 029°43'0 0.0
2017-Aug-15 21:30N 60°00' E 029°43'0 0.0
2017-Aug-15 21:00N 60°00' E 029°43'0 0.0
2017-Aug-15 20:30N 60°00' E 029°43'0 0.0
2017-Aug-15 20:00N 60°00' E 029°43'0 0.0
2017-Aug-15 19:30N 60°00' E 029°43'0 0.0
2017-Aug-15 19:00N 60°00' E 029°43'0 0.0
2017-Aug-15 18:30N 60°00' E 029°43'0 0.0
2017-Aug-15 18:00N 60°00' E 029°43'0 0.0
2017-Aug-15 17:30N 60°00' E 029°43'0 0.0
2017-Aug-15 16:59N 60°00' E 029°43'0 0.0
2017-Aug-15 16:21N 60°00' E 029°43'0 0.0
2017-Aug-15 16:00N 60°00' E 029°43'0 0.0
2017-Aug-15 15:30N 60°00' E 029°43'0 0.0
2017-Aug-15 15:00N 60°00' E 029°43'0 0.0
2017-Aug-15 14:30N 60°00' E 029°43'0 0.0
2017-Aug-15 14:00N 60°00' E 029°43'0 0.0
2017-Aug-15 13:30N 60°00' E 029°43'0 0.0
2017-Aug-15 13:00N 60°00' E 029°43'0 0.0
2017-Aug-15 12:30N 60°00' E 029°43'0 0.0
2017-Aug-15 11:43N 60°00' E 029°43'1 3.6
2017-Aug-15 11:28N 59°59' E 029°43'4 9.1
2017-Aug-15 10:59N 59°57' E 029°50'5 9.9
2017-Aug-15 10:31N 59°55' E 029°59'5 9.2
2017-Aug-15 10:00N 59°54' E 030°08'3 5.0
2017-Aug-15 09:30N 59°53' E 030°13'1 1.4
2017-Aug-15 09:00N 59°53' E 030°14'0 0.3
2017-Aug-15 08:30N 59°53' E 030°13'2 5.0
2017-Aug-15 08:01N 59°54' E 030°09'3 6.4
2017-Aug-15 07:30N 59°55' E 030°03'3 6.4
2017-Aug-15 07:00N 59°56' E 029°57'3 6.4
2017-Aug-15 06:30N 59°57' E 029°51'3 5.3
2017-Aug-15 06:00N 59°59' E 029°46'0 0.7
2017-Aug-15 05:30N 59°59' E 029°47'0 0.0
2017-Aug-15 04:59N 59°59' E 029°47'2 3.5
2017-Aug-15 04:19N 59°59' E 029°43'1 0.5
2017-Aug-15 02:36N 60°00' E 029°43'0 0.0
2017-Aug-15 02:30N 60°00' E 029°43'0 0.0
2017-Aug-15 01:58N 60°00' E 029°43'0 0.0
2017-Aug-15 00:24N 60°00' E 029°43'0 0.0
2017-Aug-13 10:12N 60°00' E 029°43'0 0.0
2017-Aug-13 00:50N 60°00' E 029°43'0 0.0
2017-Aug-13 00:30N 60°00' E 029°43'0 0.0
2017-Aug-12 05:25N 60°00' E 029°43'0 0.0
2017-Aug-12 04:59N 60°00' E 029°43'0 0.0
2017-Aug-12 04:28N 60°00' E 029°43'0 0.0
2017-Aug-12 04:01N 60°00' E 029°43'0 0.0
2017-Aug-11 22:59N 60°00' E 029°43'0 0.0
2017-Aug-11 22:25N 60°00' E 029°43'0 0.0
2017-Aug-11 20:45N 60°00' E 029°43'0 0.0
2017-Aug-11 19:24N 60°00' E 029°43'0 0.0
2017-Aug-11 18:58N 60°00' E 029°43'0 0.0
2017-Aug-11 18:30N 60°00' E 029°43'0 0.0
2017-Aug-11 17:59N 60°00' E 029°43'0 0.0
2017-Aug-11 17:30N 60°00' E 029°43'0 0.0
2017-Aug-11 17:01N 60°00' E 029°43'0 0.0
2017-Aug-11 16:30N 60°00' E 029°43'0 0.0
2017-Aug-11 16:00N 60°00' E 029°43'0 0.0
2017-Aug-11 15:30N 60°00' E 029°43'0 0.0
2017-Aug-11 15:00N 60°00' E 029°43'0 0.7
2017-Aug-11 14:30N 59°60' E 029°42'2 1.9
2017-Aug-11 13:30N 59°59' E 029°46'2 3.1
2017-Aug-11 13:00N 59°59' E 029°43'1 0.5
2017-Aug-11 10:54N 60°00' E 029°43'0 0.0
2017-Aug-11 10:15N 60°00' E 029°43'0 0.0
2017-Aug-11 08:45N 60°00' E 029°43'0 0.1
2017-Aug-11 08:29N 60°00' E 029°43'2 4.9
2017-Aug-11 08:00N 59°59' E 029°46'0 0.5
2017-Aug-11 07:07N 59°59' E 029°47'0 0.0
2017-Aug-11 06:59N 59°59' E 029°47'0 0.9
2017-Aug-11 06:30N 59°59' E 029°46'2 0.2
2017-Aug-10 19:41N 60°00' E 029°43'0 0.0
2017-Aug-10 19:23N 60°00' E 029°43'0 0.0
2017-Aug-10 18:40N 60°00' E 029°43'0 0.0
2017-Aug-10 18:14N 60°00' E 029°43'0 0.0
2017-Aug-10 07:53N 60°00' E 029°43'3 6.2
2017-Aug-10 07:27N 59°59' E 029°47'0 0.0
2017-Aug-10 06:59N 59°59' E 029°47'1 1.4
2017-Aug-10 06:30N 59°59' E 029°46'2 1.0
2017-Aug-10 04:29N 60°00' E 029°43'0 0.0
2017-Aug-10 04:00N 60°00' E 029°43'0 0.0
2017-Aug-10 03:30N 60°00' E 029°43'0 0.0
2017-Aug-10 03:00N 60°00' E 029°43'0 0.0
2017-Aug-10 02:30N 60°00' E 029°43'0 0.0
2017-Aug-10 02:00N 60°00' E 029°43'0 0.1
2017-Aug-10 00:41N 60°00' E 029°43'0 0.2
2017-Aug-10 00:30N 60°00' E 029°43'0 0.2
2017-Aug-09 23:58N 60°00' E 029°43'0 0.0
2017-Aug-09 23:30N 60°00' E 029°43'0 0.0
2017-Aug-09 23:01N 60°00' E 029°43'0 0.0
2017-Aug-09 22:30N 60°00' E 029°43'0 0.0
2017-Aug-09 21:58N 60°00' E 029°43'0 0.0
2017-Aug-09 21:30N 60°00' E 029°43'0 0.0
2017-Aug-09 11:59N 60°00' E 029°43'0 0.0
2017-Aug-09 11:30N 60°00' E 029°43'0 0.0
2017-Aug-09 07:01N 60°00' E 029°43'0 0.0
2017-Aug-09 06:59N 60°00' E 029°43'0 0.0
2017-Aug-09 06:30N 60°00' E 029°43'0 0.0
2017-Aug-09 05:58N 60°00' E 029°43'0 0.0
2017-Aug-09 05:30N 60°00' E 029°43'0 0.0
2017-Aug-09 05:00N 60°00' E 029°43'0 0.0
2017-Aug-09 04:30N 60°00' E 029°43'0 0.0
2017-Aug-09 04:00N 60°00' E 029°43'0 0.0
2017-Aug-09 03:30N 60°00' E 029°43'0 0.0
2017-Aug-09 03:00N 60°00' E 029°43'0 0.0
2017-Aug-09 02:30N 60°00' E 029°43'0 0.0
2017-Aug-09 02:00N 60°00' E 029°43'0 0.2
2017-Aug-09 01:30N 60°00' E 029°43'0 0.7
2017-Aug-09 01:00N 60°00' E 029°42'0 0.6
2017-Aug-09 00:30N 59°60' E 029°42'0 0.9
2017-Aug-08 23:58N 60°00' E 029°43'0 0.0
2017-Aug-08 23:30N 60°00' E 029°43'0 0.0
2017-Aug-08 22:58N 60°00' E 029°43'0 0.0
2017-Aug-08 22:29N 60°00' E 029°43'0 0.0
2017-Aug-08 22:00N 60°00' E 029°43'0 0.0
2017-Aug-08 21:30N 60°00' E 029°43'0 0.0
2017-Aug-08 20:59N 60°00' E 029°43'0 0.0
2017-Aug-08 20:30N 60°00' E 029°43'0 0.0
2017-Aug-08 20:00N 60°00' E 029°43'0 0.0
2017-Aug-08 19:30N 60°00' E 029°43'0 0.0
2017-Aug-08 19:00N 60°00' E 029°43'0 0.0
2017-Aug-08 18:30N 60°00' E 029°43'0 0.0
2017-Aug-08 18:00N 60°00' E 029°43'0 0.0
2017-Aug-08 17:30N 60°00' E 029°43'0 0.0
2017-Aug-08 16:40N 60°00' E 029°43'0 0.0
2017-Aug-08 16:30N 60°00' E 029°43'0 0.0
2017-Aug-08 15:58N 60°00' E 029°43'0 0.0
2017-Aug-08 15:24N 60°00' E 029°43'0 0.0
2017-Aug-07 18:26N 60°00' E 029°43'0 0.0
2017-Aug-07 16:31N 60°00' E 029°43'0 0.0
2017-Aug-07 16:20N 60°00' E 029°43'0 0.0
2017-Aug-07 15:55N 60°00' E 029°43'0 0.0
2017-Aug-07 15:30N 60°00' E 029°43'0 0.0
2017-Aug-07 14:59N 60°00' E 029°43'0 0.0
2017-Aug-07 13:47N 60°00' E 029°43'0 0.0
2017-Aug-07 13:17N 60°00' E 029°43'0 0.2
2017-Aug-07 12:55N 60°00' E 029°43'3 6.2
2017-Aug-07 12:29N 59°59' E 029°47'0 0.8
2017-Aug-07 12:00N 59°59' E 029°46'3 6.3
2017-Aug-07 11:30N 59°57' E 029°52'3 6.9
2017-Aug-07 11:00N 59°56' E 029°58'4 7.0
2017-Aug-07 10:30N 59°54' E 030°04'4 7.1
2017-Aug-07 10:00N 59°53' E 030°11'1 1.8
2017-Aug-07 09:30N 59°53' E 030°13'1 1.2
2017-Aug-07 09:00N 59°53' E 030°14'0 0.4
2017-Aug-07 08:30N 59°53' E 030°14'0 0.3
2017-Aug-07 08:00N 59°53' E 030°14'0 0.0
2017-Aug-07 07:30N 59°53' E 030°14'0 0.0
2017-Aug-07 07:00N 59°53' E 030°14'0 0.0
2017-Aug-07 06:30N 59°53' E 030°14'0 0.0
2017-Aug-07 06:00N 59°53' E 030°14'0 0.0
2017-Aug-07 05:30N 59°53' E 030°14'  
Track history (hours):
 
Tides and Currents Weather Stations Pressure Air Temp Water Temp Dewpoint Dewpoint Depression Visibility Wind Speed Wind Dir Waves Ship Positions

Tur

Last reported at 2017-Aug-17 05:24 UTC. Time now 2017-Aug-17 05:58 UTC.
Position N 60°00' E 029°43'.

Length 36 m; draft 3.9 m.

Type: Tug. MMSI: 273444990.

Date/timePositionNaut miles runAvg speedWind from/ knotsBaromVisibWave heightAir tempDewpointWater temp
2017-Aug-17 05:24N 60°00' E 029°43'0 0.0
2017-Aug-17 04:57N 60°00' E 029°43'0 0.0
2017-Aug-17 02:30N 60°00' E 029°43'0 0.0
2017-Aug-17 02:00N 60°00' E 029°43'0 0.0
2017-Aug-16 20:38N 60°00' E 029°43'0 0.0
2017-Aug-16 18:44N 60°00' E 029°43'0 0.0
2017-Aug-16 18:27N 60°00' E 029°43'0 0.0
2017-Aug-16 17:54N 60°00' E 029°43'0 0.0
2017-Aug-16 13:32N 60°00' E 029°43'0 0.0
2017-Aug-16 10:35N 60°00' E 029°43'0 0.0
2017-Aug-16 10:22N 60°00' E 029°43'0 0.0
2017-Aug-16 09:59N 60°00' E 029°43'0 0.0
2017-Aug-16 09:07N 60°00' E 029°43'0 0.0
2017-Aug-16 06:59N 60°00' E 029°43'0 0.0
2017-Aug-16 06:30N 60°00' E 029°43'0 0.0
2017-Aug-16 06:00N 60°00' E 029°43'0 0.0
2017-Aug-16 05:30N 60°00' E 029°43'0 0.0
2017-Aug-16 05:00N 60°00' E 029°43'0 0.0
2017-Aug-16 04:31N 60°00' E 029°43'0 0.0
2017-Aug-16 04:00N 60°00' E 029°43'0 0.0
2017-Aug-16 03:30N 60°00' E 029°43'0 0.0
2017-Aug-16 03:00N 60°00' E 029°43'0 0.0
2017-Aug-16 02:30N 60°00' E 029°43'0 0.0
2017-Aug-16 02:00N 60°00' E 029°43'0 0.0
2017-Aug-16 01:30N 60°00' E 029°43'0 0.0
2017-Aug-16 01:01N 60°00' E 029°43'0 0.0
2017-Aug-16 00:30N 60°00' E 029°43'0 0.0
2017-Aug-16 00:00N 60°00' E 029°43'0 0.0
2017-Aug-15 23:29N 60°00' E 029°43'0 0.0
2017-Aug-15 23:00N 60°00' E 029°43'0 0.0
2017-Aug-15 22:30N 60°00' E 029°43'0 0.0
2017-Aug-15 22:00N 60°00' E 029°43'0 0.0
2017-Aug-15 21:30N 60°00' E 029°43'0 0.0
2017-Aug-15 21:00N 60°00' E 029°43'0 0.0
2017-Aug-15 20:30N 60°00' E 029°43'0 0.0
2017-Aug-15 20:00N 60°00' E 029°43'0 0.0
2017-Aug-15 19:30N 60°00' E 029°43'0 0.0
2017-Aug-15 19:00N 60°00' E 029°43'0 0.0
2017-Aug-15 18:30N 60°00' E 029°43'0 0.0
2017-Aug-15 18:00N 60°00' E 029°43'0 0.0
2017-Aug-15 17:30N 60°00' E 029°43'0 0.0
2017-Aug-15 16:59N 60°00' E 029°43'0 0.0
2017-Aug-15 16:21N 60°00' E 029°43'0 0.0
2017-Aug-15 16:00N 60°00' E 029°43'0 0.0
2017-Aug-15 15:30N 60°00' E 029°43'0 0.0
2017-Aug-15 15:00N 60°00' E 029°43'0 0.0
2017-Aug-15 14:30N 60°00' E 029°43'0 0.0
2017-Aug-15 14:00N 60°00' E 029°43'0 0.0
2017-Aug-15 13:30N 60°00' E 029°43'0 0.0
2017-Aug-15 13:00N 60°00' E 029°43'0 0.0
2017-Aug-15 12:30N 60°00' E 029°43'0 0.0
2017-Aug-15 11:43N 60°00' E 029°43'1 3.6
2017-Aug-15 11:28N 59°59' E 029°43'4 9.1
2017-Aug-15 10:59N 59°57' E 029°50'5 9.9
2017-Aug-15 10:31N 59°55' E 029°59'5 9.2
2017-Aug-15 10:00N 59°54' E 030°08'3 5.0
2017-Aug-15 09:30N 59°53' E 030°13'1 1.4
2017-Aug-15 09:00N 59°53' E 030°14'0 0.3
2017-Aug-15 08:30N 59°53' E 030°13'2 5.0
2017-Aug-15 08:01N 59°54' E 030°09'3 6.4
2017-Aug-15 07:30N 59°55' E 030°03'3 6.4
2017-Aug-15 07:00N 59°56' E 029°57'3 6.4
2017-Aug-15 06:30N 59°57' E 029°51'3 5.3
2017-Aug-15 06:00N 59°59' E 029°46'0 0.7
2017-Aug-15 05:30N 59°59' E 029°47'0 0.0
2017-Aug-15 04:59N 59°59' E 029°47'2 3.5
2017-Aug-15 04:19N 59°59' E 029°43'1 0.5
2017-Aug-15 02:36N 60°00' E 029°43'0 0.0
2017-Aug-15 02:30N 60°00' E 029°43'0 0.0
2017-Aug-15 01:58N 60°00' E 029°43'0 0.0
2017-Aug-15 00:24N 60°00' E 029°43'0 0.0
2017-Aug-13 10:12N 60°00' E 029°43'0 0.0
2017-Aug-13 00:50N 60°00' E 029°43'0 0.0
2017-Aug-13 00:30N 60°00' E 029°43'0 0.0
2017-Aug-12 05:25N 60°00' E 029°43'0 0.0
2017-Aug-12 04:59N 60°00' E 029°43'0 0.0
2017-Aug-12 04:28N 60°00' E 029°43'0 0.0
2017-Aug-12 04:01N 60°00' E 029°43'0 0.0
2017-Aug-11 22:59N 60°00' E 029°43'0 0.0
2017-Aug-11 22:25N 60°00' E 029°43'0 0.0
2017-Aug-11 20:45N 60°00' E 029°43'0 0.0
2017-Aug-11 19:24N 60°00' E 029°43'0 0.0
2017-Aug-11 18:58N 60°00' E 029°43'0 0.0
2017-Aug-11 18:30N 60°00' E 029°43'0 0.0
2017-Aug-11 17:59N 60°00' E 029°43'0 0.0
2017-Aug-11 17:30N 60°00' E 029°43'0 0.0
2017-Aug-11 17:01N 60°00' E 029°43'0 0.0
2017-Aug-11 16:30N 60°00' E 029°43'0 0.0
2017-Aug-11 16:00N 60°00' E 029°43'0 0.0
2017-Aug-11 15:30N 60°00' E 029°43'0 0.0
2017-Aug-11 15:00N 60°00' E 029°43'0 0.7
2017-Aug-11 14:30N 59°60' E 029°42'2 1.9
2017-Aug-11 13:30N 59°59' E 029°46'2 3.1
2017-Aug-11 13:00N 59°59' E 029°43'1 0.5
2017-Aug-11 10:54N 60°00' E 029°43'0 0.0
2017-Aug-11 10:15N 60°00' E 029°43'0 0.0
2017-Aug-11 08:45N 60°00' E 029°43'0 0.1
2017-Aug-11 08:29N 60°00' E 029°43'2 4.9
2017-Aug-11 08:00N 59°59' E 029°46'0 0.5
2017-Aug-11 07:07N 59°59' E 029°47'0 0.0
2017-Aug-11 06:59N 59°59' E 029°47'0 0.9
2017-Aug-11 06:30N 59°59' E 029°46'2 0.2
2017-Aug-10 19:41N 60°00' E 029°43'0 0.0
2017-Aug-10 19:23N 60°00' E 029°43'0 0.0
2017-Aug-10 18:40N 60°00' E 029°43'0 0.0
2017-Aug-10 18:14N 60°00' E 029°43'0 0.0
2017-Aug-10 07:53N 60°00' E 029°43'3 6.2
2017-Aug-10 07:27N 59°59' E 029°47'0 0.0
2017-Aug-10 06:59N 59°59' E 029°47'1 1.4
2017-Aug-10 06:30N 59°59' E 029°46'2 1.0
2017-Aug-10 04:29N 60°00' E 029°43'0 0.0
2017-Aug-10 04:00N 60°00' E 029°43'0 0.0
2017-Aug-10 03:30N 60°00' E 029°43'0 0.0
2017-Aug-10 03:00N 60°00' E 029°43'0 0.0
2017-Aug-10 02:30N 60°00' E 029°43'0 0.0
2017-Aug-10 02:00N 60°00' E 029°43'0 0.1
2017-Aug-10 00:41N 60°00' E 029°43'0 0.2
2017-Aug-10 00:30N 60°00' E 029°43'0 0.2
2017-Aug-09 23:58N 60°00' E 029°43'0 0.0
2017-Aug-09 23:30N 60°00' E 029°43'0 0.0
2017-Aug-09 23:01N 60°00' E 029°43'0 0.0
2017-Aug-09 22:30N 60°00' E 029°43'0 0.0
2017-Aug-09 21:58N 60°00' E 029°43'0 0.0
2017-Aug-09 21:30N 60°00' E 029°43'0 0.0
2017-Aug-09 11:59N 60°00' E 029°43'0 0.0
2017-Aug-09 11:30N 60°00' E 029°43'0 0.0
2017-Aug-09 07:01N 60°00' E 029°43'0 0.0
2017-Aug-09 06:59N 60°00' E 029°43'0 0.0
2017-Aug-09 06:30N 60°00' E 029°43'0 0.0
2017-Aug-09 05:58N 60°00' E 029°43'0 0.0
2017-Aug-09 05:30N 60°00' E 029°43'0 0.0
2017-Aug-09 05:00N 60°00' E 029°43'0 0.0
2017-Aug-09 04:30N 60°00' E 029°43'0 0.0
2017-Aug-09 04:00N 60°00' E 029°43'0 0.0
2017-Aug-09 03:30N 60°00' E 029°43'0 0.0
2017-Aug-09 03:00N 60°00' E 029°43'0 0.0
2017-Aug-09 02:30N 60°00' E 029°43'0 0.0
2017-Aug-09 02:00N 60°00' E 029°43'0 0.2
2017-Aug-09 01:30N 60°00' E 029°43'0 0.7
2017-Aug-09 01:00N 60°00' E 029°42'0 0.6
2017-Aug-09 00:30N 59°60' E 029°42'0 0.9
2017-Aug-08 23:58N 60°00' E 029°43'0 0.0
2017-Aug-08 23:30N 60°00' E 029°43'0 0.0
2017-Aug-08 22:58N 60°00' E 029°43'0 0.0
2017-Aug-08 22:29N 60°00' E 029°43'0 0.0
2017-Aug-08 22:00N 60°00' E 029°43'0 0.0
2017-Aug-08 21:30N 60°00' E 029°43'0 0.0
2017-Aug-08 20:59N 60°00' E 029°43'0 0.0
2017-Aug-08 20:30N 60°00' E 029°43'0 0.0
2017-Aug-08 20:00N 60°00' E 029°43'0 0.0
2017-Aug-08 19:30N 60°00' E 029°43'0 0.0
2017-Aug-08 19:00N 60°00' E 029°43'0 0.0
2017-Aug-08 18:30N 60°00' E 029°43'0 0.0
2017-Aug-08 18:00N 60°00' E 029°43'0 0.0
2017-Aug-08 17:30N 60°00' E 029°43'0 0.0
2017-Aug-08 16:40N 60°00' E 029°43'0 0.0
2017-Aug-08 16:30N 60°00' E 029°43'0 0.0
2017-Aug-08 15:58N 60°00' E 029°43'0 0.0
2017-Aug-08 15:24N 60°00' E 029°43'0 0.0
2017-Aug-07 18:26N 60°00' E 029°43'0 0.0
2017-Aug-07 16:31N 60°00' E 029°43'0 0.0
2017-Aug-07 16:20N 60°00' E 029°43'0 0.0
2017-Aug-07 15:55N 60°00' E 029°43'0 0.0
2017-Aug-07 15:30N 60°00' E 029°43'0 0.0
2017-Aug-07 14:59N 60°00' E 029°43'0 0.0
2017-Aug-07 13:47N 60°00' E 029°43'0 0.0
2017-Aug-07 13:17N 60°00' E 029°43'0 0.2
2017-Aug-07 12:55N 60°00' E 029°43'3 6.2
2017-Aug-07 12:29N 59°59' E 029°47'0 0.8
2017-Aug-07 12:00N 59°59' E 029°46'3 6.3
2017-Aug-07 11:30N 59°57' E 029°52'3 6.9
2017-Aug-07 11:00N 59°56' E 029°58'4 7.0
2017-Aug-07 10:30N 59°54' E 030°04'4 7.1
2017-Aug-07 10:00N 59°53' E 030°11'1 1.8
2017-Aug-07 09:30N 59°53' E 030°13'1 1.2
2017-Aug-07 09:00N 59°53' E 030°14'0 0.4
2017-Aug-07 08:30N 59°53' E 030°14'0 0.3
2017-Aug-07 08:00N 59°53' E 030°14'0 0.0
2017-Aug-07 07:30N 59°53' E 030°14'0 0.0
2017-Aug-07 07:00N 59°53' E 030°14'0 0.0
2017-Aug-07 06:30N 59°53' E 030°14'0 0.0
2017-Aug-07 06:00N 59°53' E 030°14'0 0.0
2017-Aug-07 05:30N 59°53' E 030°14'  

Dump ship's entire track history